createdAt,value
2016-12-16T00:00:53.106Z,0.4
2016-12-16T00:01:56.046Z,0.3
2016-12-16T00:02:59.493Z,0.3
2016-12-16T00:04:02.430Z,0.3
2016-12-16T00:05:05.874Z,0.3
2016-12-16T00:06:08.823Z,0.3
2016-12-16T00:07:12.276Z,0.3
2016-12-16T00:08:15.222Z,0.3
2016-12-16T00:09:18.821Z,0.3
2016-12-16T00:10:21.776Z,0.3
2016-12-16T00:11:24.724Z,0.3
2016-12-16T00:12:28.172Z,0.3
2016-12-16T00:13:31.113Z,0.3
2016-12-16T00:14:34.555Z,0.3
2016-12-16T00:15:37.501Z,0.3
2016-12-16T00:16:40.947Z,0.3
2016-12-16T00:17:43.885Z,0.3
2016-12-16T00:18:47.361Z,0.3
2016-12-16T00:19:50.303Z,0.3
2016-12-16T00:20:53.246Z,0.3
2016-12-16T00:21:56.691Z,0.3
2016-12-16T00:22:59.639Z,0.3
2016-12-16T00:24:03.091Z,0.3
2016-12-16T00:25:06.170Z,0.3
2016-12-16T00:26:09.116Z,0.3
2016-12-16T00:27:12.565Z,0.3
2016-12-16T00:28:15.512Z,0.3
2016-12-16T00:29:18.963Z,0.3
2016-12-16T00:30:21.918Z,0.3
2016-12-16T00:31:24.999Z,0.3
2016-12-16T00:32:28.443Z,0.3
2016-12-16T00:33:31.389Z,0.3
2016-12-16T00:34:34.842Z,0.3
2016-12-16T00:35:37.799Z,0.3
2016-12-16T00:36:41.254Z,0.3
2016-12-16T00:37:44.198Z,0.3
2016-12-16T00:38:47.643Z,0.2
2016-12-16T00:39:50.587Z,0.3
2016-12-16T00:40:53.529Z,0.3
2016-12-16T00:41:56.978Z,0.3
2016-12-16T00:42:59.929Z,0.2
2016-12-16T00:44:03.374Z,0.2
2016-12-16T00:45:06.316Z,0.3
2016-12-16T00:47:12.673Z,0.2
2016-12-16T00:48:16.121Z,0.2
2016-12-16T00:49:19.061Z,0.3
2016-12-16T00:50:22.514Z,0.3
2016-12-16T00:51:25.460Z,0.3
2016-12-16T00:52:28.908Z,0.2
2016-12-16T00:53:31.849Z,0.2
2016-12-16T00:54:34.796Z,0.2
2016-12-16T00:55:38.244Z,0.2
2016-12-16T00:56:41.191Z,0.2
2016-12-16T00:57:44.642Z,0.2
2016-12-16T00:58:47.582Z,0.2
2016-12-16T00:59:51.031Z,0.2
2016-12-16T01:00:53.979Z,0.2
2016-12-16T01:01:57.430Z,0.2
2016-12-16T01:03:00.375Z,0.2
2016-12-16T01:04:03.826Z,0.2
2016-12-16T01:05:06.774Z,0.2
2016-12-16T01:06:09.719Z,0.2
2016-12-16T01:07:13.171Z,0.2
2016-12-16T01:08:16.116Z,0.1
2016-12-16T01:09:19.569Z,0.1
2016-12-16T01:10:22.515Z,0.1
2016-12-16T01:11:25.992Z,0.1
2016-12-16T01:12:28.935Z,0.1
2016-12-16T01:13:31.880Z,0.1
2016-12-16T01:14:35.337Z,0.1
2016-12-16T01:15:38.281Z,0.1
2016-12-16T01:16:41.733Z,0.1
2016-12-16T01:17:44.681Z,0.1
2016-12-16T01:18:48.132Z,0.1
2016-12-16T01:19:51.075Z,0.1
2016-12-16T01:20:54.524Z,0.1
2016-12-16T01:21:57.469Z,0.1
2016-12-16T01:23:00.411Z,0.1
2016-12-16T01:24:03.864Z,0.1
2016-12-16T01:25:06.804Z,0.1
2016-12-16T01:26:10.251Z,0.1
2016-12-16T01:27:13.195Z,0.1
2016-12-16T01:28:16.656Z,0
2016-12-16T01:29:19.595Z,0
2016-12-16T01:30:23.041Z,0
2016-12-16T01:31:25.988Z,0
2016-12-16T01:32:28.935Z,0
2016-12-16T01:33:32.384Z,0
2016-12-16T01:35:38.744Z,0
2016-12-16T01:36:41.688Z,0
2016-12-16T01:37:45.137Z,0
2016-12-16T01:38:48.080Z,0
2016-12-16T01:39:51.532Z,0
2016-12-16T01:40:54.479Z,0
2016-12-16T01:41:57.924Z,0
2016-12-16T01:43:00.873Z,0
2016-12-16T01:44:03.823Z,0
2016-12-16T01:45:07.274Z,0
2016-12-16T01:46:10.220Z,0
2016-12-16T01:47:13.667Z,0
2016-12-16T01:48:16.620Z,0
2016-12-16T01:49:20.064Z,0
2016-12-16T01:50:23.013Z,0
2016-12-16T01:51:25.958Z,0
2016-12-16T01:52:29.406Z,0
2016-12-16T01:53:32.352Z,0
2016-12-16T01:54:35.799Z,0
2016-12-16T01:55:38.751Z,0
2016-12-16T01:56:42.200Z,0
2016-12-16T01:57:45.147Z,0
2016-12-16T01:58:48.095Z,0
2016-12-16T01:59:51.536Z,0
2016-12-16T02:00:54.485Z,0
2016-12-16T02:01:57.941Z,0
2016-12-16T02:03:00.891Z,0
2016-12-16T02:04:04.335Z,0
2016-12-16T02:05:07.280Z,0
2016-12-16T02:06:10.724Z,0
2016-12-16T02:07:13.673Z,0
2016-12-16T02:08:16.621Z,0
2016-12-16T02:09:20.069Z,0
2016-12-16T02:10:23.015Z,0
2016-12-16T02:11:26.463Z,0
2016-12-16T02:12:29.407Z,0
2016-12-16T02:13:32.890Z,0
2016-12-16T02:14:35.835Z,0
2016-12-16T02:15:38.780Z,0
2016-12-16T02:16:42.230Z,0
2016-12-16T02:17:45.187Z,0
2016-12-16T02:18:48.638Z,0
2016-12-16T02:19:51.578Z,0
2016-12-16T02:20:55.025Z,0
2016-12-16T02:21:57.968Z,0
2016-12-16T02:23:00.920Z,0
2016-12-16T02:24:04.365Z,0
2016-12-16T02:25:07.308Z,0
2016-12-16T02:26:10.760Z,0
2016-12-16T02:27:13.709Z,0
2016-12-16T02:28:17.160Z,0
2016-12-16T02:29:20.105Z,0
2016-12-16T02:30:23.052Z,0
2016-12-16T02:31:26.503Z,0
2016-12-16T02:32:29.444Z,0
2016-12-16T02:33:32.893Z,0
2016-12-16T02:34:35.868Z,0
2016-12-16T02:35:39.317Z,0
2016-12-16T02:36:42.264Z,0
2016-12-16T02:37:45.204Z,0
2016-12-16T02:38:48.652Z,0
2016-12-16T02:39:51.602Z,0
2016-12-16T02:40:55.060Z,0
2016-12-16T02:41:58.001Z,0
2016-12-16T02:43:01.452Z,0
2016-12-16T02:44:04.424Z,0
2016-12-16T02:45:07.370Z,0
2016-12-16T02:46:10.820Z,0
2016-12-16T02:47:13.775Z,0
2016-12-16T02:48:17.223Z,0
2016-12-16T02:49:20.162Z,0
2016-12-16T02:50:23.612Z,0
2016-12-16T02:51:26.562Z,0
2016-12-16T02:52:29.511Z,0
2016-12-16T02:53:32.962Z,0
2016-12-16T02:54:35.912Z,0
2016-12-16T02:55:39.365Z,0
2016-12-16T02:56:42.314Z,0
2016-12-16T02:58:48.672Z,0
2016-12-16T02:59:52.131Z,0
2016-12-16T03:00:55.072Z,0
2016-12-16T03:01:58.017Z,-0.1
2016-12-16T03:03:01.462Z,0
2016-12-16T03:04:04.406Z,0
2016-12-16T03:05:07.846Z,-0.1
2016-12-16T03:06:10.800Z,-0.1
2016-12-16T03:07:14.243Z,-0.1
2016-12-16T03:08:17.223Z,-0.1
2016-12-16T03:09:20.167Z,-0.1
2016-12-16T03:10:23.615Z,-0.1
2016-12-16T03:11:26.561Z,-0.1
2016-12-16T03:12:30.007Z,-0.1
2016-12-16T03:13:32.959Z,-0.1
2016-12-16T03:14:36.408Z,-0.1
2016-12-16T03:15:39.354Z,-0.1
2016-12-16T03:16:42.797Z,-0.1
2016-12-16T03:17:45.743Z,-0.1
2016-12-16T03:18:48.689Z,-0.1
2016-12-16T03:19:52.151Z,-0.1
2016-12-16T03:20:55.123Z,-0.1
2016-12-16T03:21:58.570Z,-0.1
2016-12-16T03:23:01.510Z,-0.1
2016-12-16T03:24:04.955Z,-0.1
2016-12-16T03:25:07.901Z,-0.1
2016-12-16T03:26:10.847Z,-0.1
2016-12-16T03:27:14.294Z,-0.1
2016-12-16T03:28:17.239Z,-0.1
2016-12-16T03:29:20.684Z,-0.1
2016-12-16T03:30:23.623Z,-0.1
2016-12-16T03:32:29.975Z,-0.1
2016-12-16T03:33:33.424Z,-0.1
2016-12-16T03:34:36.371Z,-0.1
2016-12-16T03:35:39.316Z,-0.1
2016-12-16T03:36:42.763Z,-0.1
2016-12-16T03:37:45.772Z,-0.1
2016-12-16T03:38:49.222Z,-0.1
2016-12-16T03:39:52.166Z,-0.1
2016-12-16T03:41:58.519Z,-0.1
2016-12-16T03:43:01.466Z,-0.1
2016-12-16T03:44:04.915Z,-0.2
2016-12-16T03:45:07.859Z,-0.1
2016-12-16T03:46:11.307Z,-0.2
2016-12-16T03:47:14.251Z,-0.2
2016-12-16T03:48:17.697Z,-0.2
2016-12-16T03:49:20.652Z,-0.2
2016-12-16T03:50:23.596Z,-0.2
2016-12-16T03:51:27.044Z,-0.2
2016-12-16T03:52:29.995Z,-0.2
2016-12-16T03:53:33.443Z,-0.2
2016-12-16T03:54:36.392Z,-0.2
2016-12-16T03:55:39.839Z,-0.2
2016-12-16T03:56:42.781Z,-0.2
2016-12-16T03:57:46.223Z,-0.2
2016-12-16T03:58:49.156Z,-0.2
2016-12-16T03:59:52.093Z,-0.2
2016-12-16T04:00:55.543Z,-0.2
2016-12-16T04:01:58.489Z,-0.2
2016-12-16T04:03:01.930Z,-0.3
2016-12-16T04:04:04.873Z,-0.3
2016-12-16T04:05:07.946Z,-0.3
2016-12-16T04:06:11.388Z,-0.3
2016-12-16T04:07:14.330Z,-0.3
2016-12-16T04:08:17.772Z,-0.3
2016-12-16T04:09:20.717Z,-0.3
2016-12-16T04:10:23.659Z,-0.3
2016-12-16T04:11:27.104Z,-0.3
2016-12-16T04:12:30.055Z,-0.3
2016-12-16T04:13:33.508Z,-0.3
2016-12-16T04:14:36.447Z,-0.3
2016-12-16T04:15:39.887Z,-0.3
2016-12-16T04:16:42.826Z,-0.3
2016-12-16T04:17:45.769Z,-0.3
2016-12-16T04:18:49.217Z,-0.3
2016-12-16T04:19:52.153Z,-0.3
2016-12-16T04:20:55.761Z,-0.3
2016-12-16T04:21:58.704Z,-0.3
2016-12-16T04:23:01.642Z,-0.3
2016-12-16T04:24:05.087Z,-0.3
2016-12-16T04:25:08.029Z,-0.3
2016-12-16T04:26:11.472Z,-0.3
2016-12-16T04:27:14.411Z,-0.3
2016-12-16T04:28:17.857Z,-0.3
2016-12-16T04:29:20.795Z,-0.3
2016-12-16T04:30:23.729Z,-0.3
2016-12-16T04:31:27.172Z,-0.3
2016-12-16T04:32:30.117Z,-0.3
2016-12-16T04:33:33.559Z,-0.4
2016-12-16T04:34:36.506Z,-0.4
2016-12-16T04:35:39.946Z,-0.4
2016-12-16T04:36:42.886Z,-0.3
2016-12-16T04:37:45.824Z,-0.3
2016-12-16T04:38:49.268Z,-0.4
2016-12-16T04:39:52.212Z,-0.4
2016-12-16T04:40:55.660Z,-0.4
2016-12-16T04:41:58.606Z,-0.4
2016-12-16T04:44:04.962Z,-0.4
2016-12-16T04:45:07.899Z,-0.4
2016-12-16T04:46:11.339Z,-0.5
2016-12-16T04:47:14.285Z,-0.4
2016-12-16T04:48:17.755Z,-0.5
2016-12-16T04:49:20.704Z,-0.4
2016-12-16T04:51:27.063Z,-0.5
2016-12-16T04:52:30.008Z,-0.5
2016-12-16T04:53:33.453Z,-0.5
2016-12-16T04:54:36.393Z,-0.5
2016-12-16T04:55:39.831Z,-0.5
2016-12-16T04:56:42.771Z,-0.5
2016-12-16T04:57:46.215Z,-0.5
2016-12-16T04:58:49.153Z,-0.5
2016-12-16T04:59:52.087Z,-0.5
2016-12-16T05:00:55.528Z,-0.5
2016-12-16T05:01:58.477Z,-0.5
2016-12-16T05:03:01.924Z,-0.5
2016-12-16T05:04:04.869Z,-0.5
2016-12-16T05:05:08.313Z,-0.5
2016-12-16T05:06:11.254Z,-0.5
2016-12-16T05:07:14.194Z,-0.5
2016-12-16T05:08:17.639Z,-0.5
2016-12-16T05:09:20.582Z,-0.5
2016-12-16T05:10:23.702Z,-0.5
2016-12-16T05:11:27.137Z,-0.5
2016-12-16T05:12:30.080Z,-0.5
2016-12-16T05:14:36.434Z,-0.5
2016-12-16T05:15:39.380Z,-0.5
2016-12-16T05:16:42.825Z,-0.5
2016-12-16T05:17:45.764Z,-0.5
2016-12-16T05:18:49.203Z,-0.5
2016-12-16T05:19:52.142Z,-0.5
2016-12-16T05:20:55.594Z,-0.5
2016-12-16T05:21:58.534Z,-0.5
2016-12-16T05:24:04.885Z,-0.5
2016-12-16T05:25:07.825Z,-0.5
2016-12-16T05:26:11.279Z,-0.5
2016-12-16T05:27:14.221Z,-0.5
2016-12-16T05:28:17.661Z,-0.5
2016-12-16T05:29:20.603Z,-0.5
2016-12-16T05:30:23.540Z,-0.5
2016-12-16T05:31:26.988Z,-0.5
2016-12-16T05:32:29.928Z,-0.5
2016-12-16T05:33:33.370Z,-0.5
2016-12-16T05:34:36.309Z,-0.5
2016-12-16T05:35:39.759Z,-0.5
2016-12-16T05:36:42.697Z,-0.5
2016-12-16T05:37:45.631Z,-0.5
2016-12-16T05:38:49.079Z,-0.5
2016-12-16T05:40:55.430Z,-0.5
2016-12-16T05:41:58.367Z,-0.5
2016-12-16T05:43:01.808Z,-0.5
2016-12-16T05:44:04.749Z,-0.6
2016-12-16T05:45:07.687Z,-0.6
2016-12-16T05:46:11.136Z,-0.6
2016-12-16T05:47:14.081Z,-0.6
2016-12-16T05:48:17.547Z,-0.6
2016-12-16T05:49:20.485Z,-0.6
2016-12-16T05:50:23.931Z,-0.6
2016-12-16T05:51:26.872Z,-0.6
2016-12-16T05:52:29.808Z,-0.6
2016-12-16T05:53:33.255Z,-0.6
2016-12-16T05:54:36.197Z,-0.6
2016-12-16T05:55:39.639Z,-0.6
2016-12-16T05:56:42.582Z,-0.6
2016-12-16T05:57:45.522Z,-0.6
2016-12-16T05:58:48.968Z,-0.6
2016-12-16T05:59:52.046Z,-0.6
2016-12-16T06:00:54.982Z,-0.6
2016-12-16T06:01:58.428Z,-0.6
2016-12-16T06:03:01.367Z,-0.6
2016-12-16T06:04:04.812Z,-0.6
2016-12-16T06:05:07.754Z,-0.6
2016-12-16T06:06:11.197Z,-0.6
2016-12-16T06:07:14.133Z,-0.6
2016-12-16T06:08:17.070Z,-0.6
2016-12-16T06:09:20.512Z,-0.6
2016-12-16T06:10:23.454Z,-0.6
2016-12-16T06:11:26.896Z,-0.6
2016-12-16T06:12:29.835Z,-0.6
2016-12-16T06:13:33.275Z,-0.5
2016-12-16T06:14:36.214Z,-0.5
2016-12-16T06:15:39.156Z,-0.5
2016-12-16T06:17:45.510Z,-0.5
2016-12-16T06:18:48.946Z,-0.4
2016-12-16T06:19:51.888Z,-0.4
2016-12-16T06:20:55.330Z,-0.4
2016-12-16T06:21:58.261Z,-0.4
2016-12-16T06:23:01.210Z,-0.4
2016-12-16T06:24:04.657Z,-0.4
2016-12-16T06:25:07.599Z,-0.5
2016-12-16T06:26:11.047Z,-0.5
2016-12-16T06:27:13.987Z,-0.5
2016-12-16T06:28:16.928Z,-0.5
2016-12-16T06:29:20.370Z,-0.5
2016-12-16T06:30:23.307Z,-0.6
2016-12-16T06:31:26.751Z,-0.6
2016-12-16T06:32:29.722Z,-0.6
2016-12-16T06:33:33.174Z,-0.6
2016-12-16T06:34:36.248Z,-0.6
2016-12-16T06:35:39.190Z,-0.6
2016-12-16T06:36:42.132Z,-0.6
2016-12-16T06:37:45.578Z,-0.6
2016-12-16T06:38:48.519Z,-0.6
2016-12-16T06:39:51.960Z,-0.6
2016-12-16T06:40:54.902Z,-0.6
2016-12-16T06:41:58.348Z,-0.6
2016-12-16T06:43:01.421Z,-0.6
2016-12-16T06:45:07.772Z,-0.6
2016-12-16T06:46:10.717Z,-0.6
2016-12-16T06:47:13.660Z,-0.6
2016-12-16T06:48:17.103Z,-0.6
2016-12-16T06:50:23.457Z,-0.6
2016-12-16T06:51:26.644Z,-0.6
2016-12-16T06:52:29.587Z,-0.6
2016-12-16T06:53:32.521Z,-0.6
2016-12-16T06:54:35.963Z,-0.6
2016-12-16T06:55:38.899Z,-0.6
2016-12-16T06:56:42.340Z,-0.7
2016-12-16T06:57:45.276Z,-0.7
2016-12-16T06:58:48.723Z,-0.7
2016-12-16T06:59:51.667Z,-0.7
2016-12-16T07:00:54.607Z,-0.7
2016-12-16T07:01:58.048Z,-0.7
2016-12-16T07:03:01.133Z,-0.7
2016-12-16T07:04:04.075Z,-0.7
2016-12-16T07:05:07.514Z,-0.7
2016-12-16T07:06:10.449Z,-0.7
2016-12-16T07:07:13.889Z,-0.7
2016-12-16T07:08:16.831Z,-0.7
2016-12-16T07:10:23.197Z,-0.7
2016-12-16T07:11:26.140Z,-0.7
2016-12-16T07:12:29.261Z,-0.7
2016-12-16T07:13:32.385Z,-0.7
2016-12-16T07:14:35.833Z,-0.7
2016-12-16T07:15:38.771Z,-0.6
2016-12-16T07:16:42.210Z,-0.6
2016-12-16T07:17:45.152Z,-0.6
2016-12-16T07:18:48.592Z,-0.6
2016-12-16T07:19:51.538Z,-0.7
2016-12-16T07:20:54.605Z,-0.7
2016-12-16T07:21:58.049Z,-0.6
2016-12-16T07:23:01.124Z,-0.6
2016-12-16T07:24:04.066Z,-0.6
2016-12-16T07:25:07.042Z,-0.6
2016-12-16T07:26:10.482Z,-0.6
2016-12-16T07:27:13.417Z,-0.6
2016-12-16T07:28:16.855Z,-0.6
2016-12-16T07:29:19.795Z,-0.6
2016-12-16T07:30:23.239Z,-0.7
2016-12-16T07:31:26.182Z,-0.7
2016-12-16T07:32:29.127Z,-0.7
2016-12-16T07:33:32.574Z,-0.7
2016-12-16T07:34:35.519Z,-0.7
2016-12-16T07:35:38.961Z,-0.7
2016-12-16T07:37:45.320Z,-0.7
2016-12-16T07:38:48.268Z,-0.7
2016-12-16T07:39:51.203Z,-0.7
2016-12-16T07:40:54.621Z,-0.7
2016-12-16T07:43:00.971Z,-0.7
2016-12-16T07:44:03.939Z,-0.7
2016-12-16T07:45:07.382Z,-0.7
2016-12-16T07:46:10.318Z,-0.7
2016-12-16T07:47:13.257Z,-0.7
2016-12-16T07:48:16.726Z,-0.7
2016-12-16T07:49:19.667Z,-0.6
2016-12-16T07:50:23.104Z,-0.7
2016-12-16T07:51:26.042Z,-0.7
2016-12-16T07:52:29.020Z,-0.7
2016-12-16T07:53:32.461Z,-0.7
2016-12-16T07:54:35.394Z,-0.7
2016-12-16T07:55:38.845Z,-0.6
2016-12-16T07:56:41.788Z,-0.6
2016-12-16T07:57:44.728Z,-0.6
2016-12-16T07:58:48.172Z,-0.6
2016-12-16T07:59:51.107Z,-0.6
2016-12-16T08:00:54.545Z,-0.6
2016-12-16T08:01:57.488Z,-0.6
2016-12-16T08:03:00.927Z,-0.6
2016-12-16T08:04:03.869Z,-0.6
2016-12-16T08:05:06.812Z,-0.6
2016-12-16T08:06:10.258Z,-0.6
2016-12-16T08:07:13.197Z,-0.6
2016-12-16T08:08:16.642Z,-0.6
2016-12-16T08:09:19.635Z,-0.6
2016-12-16T08:10:22.573Z,-0.6
2016-12-16T08:11:26.013Z,-0.6
2016-12-16T08:12:28.951Z,-0.6
2016-12-16T08:13:32.396Z,-0.6
2016-12-16T08:14:35.330Z,-0.5
2016-12-16T08:15:38.772Z,-0.6
2016-12-16T08:16:41.704Z,-0.5
2016-12-16T08:17:44.643Z,-0.5
2016-12-16T08:18:48.085Z,-0.5
2016-12-16T08:19:51.026Z,-0.5
2016-12-16T08:20:54.468Z,-0.5
2016-12-16T08:21:57.403Z,-0.5
2016-12-16T08:23:00.840Z,-0.5
2016-12-16T08:24:03.777Z,-0.6
2016-12-16T08:25:07.216Z,-0.6
2016-12-16T08:26:10.155Z,-0.6
2016-12-16T08:27:13.094Z,-0.6
2016-12-16T08:29:19.444Z,-0.6
2016-12-16T08:30:22.882Z,-0.6
2016-12-16T08:31:25.823Z,-0.6
2016-12-16T08:32:29.265Z,-0.6
2016-12-16T08:33:32.206Z,-0.6
2016-12-16T08:34:35.156Z,-0.6
2016-12-16T08:36:41.532Z,-0.6
2016-12-16T08:37:44.976Z,-0.6
2016-12-16T08:38:47.940Z,-0.6
2016-12-16T08:39:51.380Z,-0.6
2016-12-16T08:40:54.319Z,-0.6
2016-12-16T08:41:57.256Z,-0.6
2016-12-16T08:43:00.702Z,-0.6
2016-12-16T08:44:03.641Z,-0.6
2016-12-16T08:45:07.085Z,-0.6
2016-12-16T08:46:10.026Z,-0.6
2016-12-16T08:47:13.474Z,-0.6
2016-12-16T08:48:16.411Z,-0.6
2016-12-16T08:49:19.352Z,-0.6
2016-12-16T08:50:22.794Z,-0.6
2016-12-16T08:51:25.733Z,-0.6
2016-12-16T08:52:29.177Z,-0.6
2016-12-16T08:53:32.119Z,-0.6
2016-12-16T08:54:35.563Z,-0.6
2016-12-16T08:55:38.504Z,-0.6
2016-12-16T08:56:41.448Z,-0.5
2016-12-16T08:57:44.886Z,-0.5
2016-12-16T08:58:47.827Z,-0.5
2016-12-16T08:59:51.260Z,-0.5
2016-12-16T09:00:54.200Z,-0.5
2016-12-16T09:01:57.642Z,-0.5
2016-12-16T09:03:00.581Z,-0.5
2016-12-16T09:04:03.527Z,-0.5
2016-12-16T09:05:06.965Z,-0.5
2016-12-16T09:06:09.900Z,-0.5
2016-12-16T09:07:13.343Z,-0.5
2016-12-16T09:08:16.285Z,-0.5
2016-12-16T09:10:22.638Z,-0.5
2016-12-16T09:11:26.096Z,-0.5
2016-12-16T09:12:29.036Z,-0.5
2016-12-16T09:13:31.979Z,-0.5
2016-12-16T09:14:35.417Z,-0.5
2016-12-16T09:15:38.353Z,-0.5
2016-12-16T09:16:41.794Z,-0.5
2016-12-16T09:17:44.740Z,-0.5
2016-12-16T09:18:48.181Z,-0.5
2016-12-16T09:19:51.117Z,-0.5
2016-12-16T09:20:54.058Z,-0.5
2016-12-16T09:21:57.502Z,-0.5
2016-12-16T09:23:00.442Z,-0.4
2016-12-16T09:24:03.883Z,-0.4
2016-12-16T09:25:06.820Z,-0.4
2016-12-16T09:27:13.421Z,-0.4
2016-12-16T09:28:16.357Z,-0.4
2016-12-16T09:29:19.799Z,-0.4
2016-12-16T09:30:22.976Z,-0.4
2016-12-16T09:31:26.172Z,-0.4
2016-12-16T09:32:29.112Z,-0.4
2016-12-16T09:33:32.047Z,-0.4
2016-12-16T09:34:35.484Z,-0.4
2016-12-16T09:35:38.420Z,-0.4
2016-12-16T09:36:41.857Z,-0.4
2016-12-16T09:37:44.788Z,-0.3
2016-12-16T09:38:48.228Z,-0.4
2016-12-16T09:39:51.169Z,-0.4
2016-12-16T09:40:54.607Z,-0.4
2016-12-16T09:41:57.544Z,-0.4
2016-12-16T09:43:00.999Z,-0.4
2016-12-16T09:44:03.944Z,-0.4
2016-12-16T09:45:06.915Z,-0.4
2016-12-16T09:46:10.352Z,-0.4
2016-12-16T09:47:13.288Z,-0.4
2016-12-16T09:48:16.755Z,-0.4
2016-12-16T09:49:19.693Z,-0.4
2016-12-16T09:50:22.722Z,-0.4
2016-12-16T09:51:26.168Z,-0.4
2016-12-16T09:52:29.108Z,-0.4
2016-12-16T09:53:32.548Z,-0.4
2016-12-16T09:54:35.494Z,-0.3
2016-12-16T09:55:38.938Z,-0.3
2016-12-16T09:56:41.874Z,-0.3
2016-12-16T09:57:45.318Z,-0.3
2016-12-16T09:58:48.474Z,-0.3
2016-12-16T09:59:51.276Z,-0.3
2016-12-16T10:00:54.408Z,-0.3
2016-12-16T10:01:57.854Z,-0.3
2016-12-16T10:03:00.786Z,-0.3
2016-12-16T10:04:04.230Z,-0.3
2016-12-16T10:05:07.170Z,-0.3
2016-12-16T10:06:10.607Z,-0.3
2016-12-16T10:07:13.547Z,-0.3
2016-12-16T10:08:16.988Z,-0.3
2016-12-16T10:09:19.931Z,-0.3
2016-12-16T10:11:26.284Z,-0.3
2016-12-16T10:12:29.231Z,-0.3
2016-12-16T10:13:32.677Z,-0.3
2016-12-16T10:14:35.613Z,-0.3
2016-12-16T10:15:39.051Z,-0.3
2016-12-16T10:16:41.987Z,-0.3
2016-12-16T10:17:45.430Z,-0.3
2016-12-16T10:18:48.365Z,-0.3
2016-12-16T10:19:51.807Z,-0.3
2016-12-16T10:20:54.747Z,-0.3
2016-12-16T10:21:58.189Z,-0.3
2016-12-16T10:23:01.124Z,-0.3
2016-12-16T10:24:04.071Z,-0.3
2016-12-16T10:25:07.520Z,-0.3
2016-12-16T10:26:10.457Z,-0.3
2016-12-16T10:27:13.898Z,-0.3
2016-12-16T10:28:16.838Z,-0.3
2016-12-16T10:29:20.282Z,-0.3
2016-12-16T10:30:23.228Z,-0.3
2016-12-16T10:31:26.673Z,-0.3
2016-12-16T10:32:29.619Z,-0.3
2016-12-16T10:33:33.062Z,-0.3
2016-12-16T10:34:35.998Z,-0.3
2016-12-16T10:35:38.936Z,-0.3
2016-12-16T10:36:42.378Z,-0.3
2016-12-16T10:37:45.318Z,-0.3
2016-12-16T10:38:48.764Z,-0.3
2016-12-16T10:39:51.700Z,-0.3
2016-12-16T10:41:58.055Z,-0.3
2016-12-16T10:43:01.493Z,-0.3
2016-12-16T10:44:04.434Z,-0.2
2016-12-16T10:45:07.876Z,-0.2
2016-12-16T10:46:10.815Z,-0.2
2016-12-16T10:47:14.257Z,-0.2
2016-12-16T10:48:17.196Z,-0.3
2016-12-16T10:49:20.639Z,-0.3
2016-12-16T10:50:23.581Z,-0.3
2016-12-16T10:51:26.649Z,-0.3
2016-12-16T10:52:30.094Z,-0.3
2016-12-16T10:53:33.028Z,-0.3
2016-12-16T10:54:36.472Z,-0.3
2016-12-16T10:55:39.409Z,-0.3
2016-12-16T10:56:42.856Z,-0.3
2016-12-16T10:57:45.794Z,-0.3
2016-12-16T10:58:48.727Z,-0.3
2016-12-16T10:59:52.167Z,-0.3
2016-12-16T11:00:55.109Z,-0.3
2016-12-16T11:01:58.550Z,-0.2
2016-12-16T11:03:01.493Z,-0.2
2016-12-16T11:04:04.936Z,-0.2
2016-12-16T11:05:07.876Z,-0.2
2016-12-16T11:06:11.322Z,-0.1
2016-12-16T11:07:14.260Z,-0.1
2016-12-16T11:08:17.694Z,-0.1
2016-12-16T11:09:20.629Z,-0.1
2016-12-16T11:10:24.078Z,-0.1
2016-12-16T11:11:27.015Z,-0.1
2016-12-16T11:12:30.464Z,-0.1
2016-12-16T11:13:33.410Z,-0.1
2016-12-16T11:14:36.350Z,-0.1
2016-12-16T11:15:39.793Z,-0.1
2016-12-16T11:16:42.732Z,-0.1
2016-12-16T11:17:46.183Z,-0.1
2016-12-16T11:18:49.123Z,-0.1
2016-12-16T11:19:52.573Z,-0.1
2016-12-16T11:20:55.512Z,-0.1
2016-12-16T11:21:58.952Z,-0.1
2016-12-16T11:23:01.889Z,-0.1
2016-12-16T11:24:05.331Z,-0.1
2016-12-16T11:25:08.275Z,-0.1
2016-12-16T11:26:11.714Z,-0.1
2016-12-16T11:27:14.649Z,-0.1
2016-12-16T11:28:18.086Z,-0.1
2016-12-16T11:29:21.024Z,-0.1
2016-12-16T11:30:23.965Z,-0.1
2016-12-16T11:31:27.410Z,-0.1
2016-12-16T11:32:30.349Z,-0.1
2016-12-16T11:33:33.793Z,-0.1
2016-12-16T11:34:36.734Z,-0.1
2016-12-16T11:35:40.179Z,-0.1
2016-12-16T11:36:43.119Z,-0.1
2016-12-16T11:37:46.568Z,-0.1
2016-12-16T11:38:49.507Z,-0.1
2016-12-16T11:39:52.946Z,-0.1
2016-12-16T11:40:55.887Z,-0.1
2016-12-16T11:41:59.335Z,-0.1
2016-12-16T11:43:02.271Z,-0.1
2016-12-16T11:44:05.718Z,-0.1
2016-12-16T11:45:08.656Z,-0.1
2016-12-16T11:46:11.597Z,-0.1
2016-12-16T11:47:15.043Z,-0.1
2016-12-16T11:48:17.980Z,-0.1
2016-12-16T11:49:21.425Z,-0.1
2016-12-16T11:50:24.364Z,-0.1
2016-12-16T11:51:27.803Z,-0.1
2016-12-16T11:52:30.746Z,-0.1
2016-12-16T11:53:34.190Z,-0.1
2016-12-16T11:54:37.128Z,-0.1
2016-12-16T11:55:40.570Z,0
2016-12-16T11:56:43.508Z,0
2016-12-16T11:57:46.944Z,0
2016-12-16T11:58:50.047Z,0
2016-12-16T11:59:53.022Z,0
2016-12-16T12:00:56.461Z,0
2016-12-16T12:01:59.396Z,0
2016-12-16T12:03:02.838Z,0
2016-12-16T12:04:05.778Z,0
2016-12-16T12:06:12.130Z,0
2016-12-16T12:07:15.575Z,0
2016-12-16T12:08:18.510Z,0
2016-12-16T12:09:21.945Z,0
2016-12-16T12:10:24.898Z,0
2016-12-16T12:11:28.346Z,0
2016-12-16T12:12:31.287Z,0
2016-12-16T12:13:34.230Z,0
2016-12-16T12:14:37.674Z,0
2016-12-16T12:15:40.622Z,0
2016-12-16T12:16:44.064Z,0
2016-12-16T12:17:47.001Z,0
2016-12-16T12:18:50.576Z,0
2016-12-16T12:19:53.519Z,0
2016-12-16T12:20:56.457Z,0
2016-12-16T12:21:59.928Z,0
2016-12-16T12:23:02.868Z,0
2016-12-16T12:24:06.310Z,0
2016-12-16T12:25:09.247Z,0
2016-12-16T12:26:12.690Z,0
2016-12-16T12:27:15.625Z,0
2016-12-16T12:28:19.066Z,0
2016-12-16T12:29:22.000Z,0
2016-12-16T12:30:25.447Z,0
2016-12-16T12:31:28.450Z,0
2016-12-16T12:32:31.892Z,0
2016-12-16T12:33:34.832Z,0.1
2016-12-16T12:34:38.271Z,0
2016-12-16T12:35:41.206Z,0
2016-12-16T12:36:44.147Z,0
2016-12-16T12:37:47.586Z,0
2016-12-16T12:38:50.528Z,0
2016-12-16T12:39:53.972Z,0
2016-12-16T12:40:56.915Z,0
2016-12-16T12:42:00.354Z,0
2016-12-16T12:43:03.292Z,0.1
2016-12-16T12:45:09.638Z,0.1
2016-12-16T12:46:13.078Z,0.1
2016-12-16T12:47:16.020Z,0.1
2016-12-16T12:48:19.458Z,0.1
2016-12-16T12:49:22.395Z,0.1
2016-12-16T12:50:25.835Z,0
2016-12-16T12:51:28.775Z,0.1
2016-12-16T12:52:32.225Z,0.1
2016-12-16T12:53:35.296Z,0.1
2016-12-16T12:54:38.376Z,0.1
2016-12-16T12:55:41.824Z,0.1
2016-12-16T12:56:44.769Z,0.1
2016-12-16T12:57:48.241Z,0.1
2016-12-16T12:58:51.143Z,0.1
2016-12-16T12:59:54.588Z,0.1
2016-12-16T13:00:57.530Z,0.1
2016-12-16T13:02:00.465Z,0.2
2016-12-16T13:03:03.907Z,0.2
2016-12-16T13:04:06.851Z,0.2
2016-12-16T13:05:10.290Z,0.2
2016-12-16T13:06:13.226Z,0.2
2016-12-16T13:07:16.663Z,0.3
2016-12-16T13:08:19.597Z,0.3
2016-12-16T13:09:23.037Z,0.3
2016-12-16T13:10:25.976Z,0.3
2016-12-16T13:11:29.415Z,0.3
2016-12-16T13:12:32.355Z,0.2
2016-12-16T13:13:35.807Z,0.1
2016-12-16T13:15:42.154Z,0.1
2016-12-16T13:16:45.090Z,0.1
2016-12-16T13:17:48.534Z,0.1
2016-12-16T13:18:51.477Z,0.2
2016-12-16T13:19:54.916Z,0.2
2016-12-16T13:20:57.851Z,0.2
2016-12-16T13:22:01.293Z,0.2
2016-12-16T13:23:04.233Z,0.1
2016-12-16T13:24:07.671Z,0.1
2016-12-16T13:25:10.608Z,0.1
2016-12-16T13:26:14.047Z,0.2
2016-12-16T13:27:16.984Z,0.2
2016-12-16T13:28:20.427Z,0.2
2016-12-16T13:29:23.368Z,0.2
2016-12-16T13:30:26.810Z,0.2
2016-12-16T13:31:29.747Z,0.2
2016-12-16T13:32:33.190Z,0.2
2016-12-16T13:33:36.125Z,0.2
2016-12-16T13:34:39.571Z,0.2
2016-12-16T13:35:42.507Z,0.2
2016-12-16T13:36:45.626Z,0.2
2016-12-16T13:37:49.064Z,0.2
2016-12-16T13:38:52.005Z,0.2
2016-12-16T13:39:55.440Z,0.3
2016-12-16T13:40:58.377Z,0.2
2016-12-16T13:42:01.824Z,0.2
2016-12-16T13:43:04.765Z,0.3
2016-12-16T13:45:11.129Z,0.2
2016-12-16T13:46:14.580Z,0.2
2016-12-16T13:47:17.520Z,0.2
2016-12-16T13:49:23.876Z,0.2
2016-12-16T13:50:27.315Z,0.2
2016-12-16T13:51:30.259Z,0.2
2016-12-16T13:52:33.596Z,0.1
2016-12-16T13:53:36.568Z,0.1
2016-12-16T13:54:40.022Z,0.2
2016-12-16T13:55:42.961Z,0.2
2016-12-16T13:56:46.403Z,0.2
2016-12-16T13:57:49.344Z,0.2
2016-12-16T13:58:52.283Z,0.2
2016-12-16T13:59:55.727Z,0.2
2016-12-16T14:00:58.662Z,0.2
2016-12-16T14:02:02.110Z,0.2
2016-12-16T14:03:05.056Z,0.2
2016-12-16T14:04:08.495Z,0.2
2016-12-16T14:05:11.433Z,0.3
2016-12-16T14:06:14.872Z,0.2
2016-12-16T14:07:17.805Z,0.2
2016-12-16T14:08:21.250Z,0.2
2016-12-16T14:09:24.191Z,0.2
2016-12-16T14:10:27.635Z,0.2
2016-12-16T14:11:30.875Z,0.2
2016-12-16T14:12:33.811Z,0.2
2016-12-16T14:13:37.250Z,0.2
2016-12-16T14:14:40.187Z,0.2
2016-12-16T14:15:43.625Z,0.2
2016-12-16T14:17:49.976Z,0.1
2016-12-16T14:18:52.908Z,0.2
2016-12-16T14:19:56.352Z,0.2
2016-12-16T14:20:59.291Z,0.1
2016-12-16T14:22:02.729Z,0.2
2016-12-16T14:23:05.671Z,0.2
2016-12-16T14:24:08.617Z,0.2
2016-12-16T14:25:12.056Z,0.2
2016-12-16T14:26:14.992Z,0.2
2016-12-16T14:27:18.441Z,0.2
2016-12-16T14:28:21.377Z,0.1
2016-12-16T14:29:24.815Z,0.1
2016-12-16T14:30:27.762Z,0.1
2016-12-16T14:31:31.203Z,0.1
2016-12-16T14:32:34.144Z,0.1
2016-12-16T14:33:37.587Z,0.1
2016-12-16T14:34:40.524Z,0.1
2016-12-16T14:35:43.964Z,0.1
2016-12-16T14:36:46.903Z,0.1
2016-12-16T14:37:50.344Z,0.1
2016-12-16T14:38:53.287Z,0.1
2016-12-16T14:39:56.729Z,0.1
2016-12-16T14:40:59.667Z,0.1
2016-12-16T14:42:03.111Z,0.1
2016-12-16T14:43:06.053Z,0.1
2016-12-16T14:44:09.497Z,0.1
2016-12-16T14:45:12.432Z,0.1
2016-12-16T14:46:15.875Z,0.1
2016-12-16T14:47:18.811Z,0.1
2016-12-16T14:48:21.890Z,0.1
2016-12-16T14:50:28.238Z,0.1
2016-12-16T14:51:31.689Z,0.1
2016-12-16T14:52:34.624Z,0.1